<?xml version="1.0" encoding="UTF-8" standalone="no" ?>
<gpx xmlns="http://www.topografix.com/GPX/1/1" xmlns:xsi="http://www.w3.org/2001/XMLSchema-instance" xsi:schemaLocation="http://www.topografix.com/GPX/1/1 http://www.topografix.com/GPX/1/1/gpx.xsd" version="1.1" creator="VisuGPX - https://www.visugpx.com">
  <metadata>
    <name>2024-09-23-47-Roquecor-Molinié</name>
    <desc><![CDATA[Randonnée de 10 km sans grande difficulté, point de vue à ne pas manquer de l'esplanade du château : la vallée de la petite Séoune et ses collines. Sur vos pas, vous trouverez un site troglodyte. Avec un ensemble de sentiers en sous bois vous rencontrerez un moulin des chapelles et de belles maisons de pierre]]></desc>
  </metadata>
  <trk>
    <name><![CDATA[Roquecor - Molinié 10 km -13527280]]></name>
    <trkseg>
      <trkpt lat="44.32338" lon="0.94488">
        <ele>216</ele>
        <time>2024-08-26T20:47:24Z</time>
      </trkpt>
      <trkpt lat="44.32342" lon="0.94503">
        <ele>215</ele>
        <time>2024-08-26T20:47:39Z</time>
      </trkpt>
      <trkpt lat="44.32343" lon="0.94485">
        <ele>216</ele>
        <time>2024-08-26T20:47:57Z</time>
      </trkpt>
      <trkpt lat="44.32338" lon="0.94473">
        <ele>217</ele>
        <time>2024-08-26T20:48:10Z</time>
      </trkpt>
      <trkpt lat="44.32355" lon="0.94464">
        <ele>217</ele>
        <time>2024-08-26T20:48:34Z</time>
      </trkpt>
      <trkpt lat="44.32354" lon="0.9445">
        <ele>218</ele>
        <time>2024-08-26T20:48:47Z</time>
      </trkpt>
      <trkpt lat="44.32338" lon="0.94432">
        <ele>219</ele>
        <time>2024-08-26T20:49:15Z</time>
      </trkpt>
      <trkpt lat="44.3233" lon="0.9441">
        <ele>220</ele>
        <time>2024-08-26T20:49:38Z</time>
      </trkpt>
      <trkpt lat="44.32314" lon="0.94384">
        <ele>222</ele>
        <time>2024-08-26T20:50:11Z</time>
      </trkpt>
      <trkpt lat="44.32304" lon="0.94354">
        <ele>224</ele>
        <time>2024-08-26T20:50:43Z</time>
      </trkpt>
      <trkpt lat="44.3231" lon="0.94332">
        <ele>225</ele>
        <time>2024-08-26T20:51:05Z</time>
      </trkpt>
      <trkpt lat="44.3231" lon="0.94314">
        <ele>225</ele>
        <time>2024-08-26T20:51:22Z</time>
      </trkpt>
      <trkpt lat="44.32344" lon="0.94237">
        <ele>227</ele>
        <time>2024-08-26T20:52:49Z</time>
      </trkpt>
      <trkpt lat="44.32362" lon="0.94177">
        <ele>228</ele>
        <time>2024-08-26T20:53:51Z</time>
      </trkpt>
      <trkpt lat="44.32379" lon="0.94143">
        <ele>227</ele>
        <time>2024-08-26T20:54:31Z</time>
      </trkpt>
      <trkpt lat="44.32383" lon="0.94116">
        <ele>227</ele>
        <time>2024-08-26T20:54:57Z</time>
      </trkpt>
      <trkpt lat="44.32388" lon="0.94111">
        <ele>227</ele>
        <time>2024-08-26T20:55:05Z</time>
      </trkpt>
      <trkpt lat="44.32388" lon="0.94094">
        <ele>227</ele>
        <time>2024-08-26T20:55:21Z</time>
      </trkpt>
      <trkpt lat="44.32398" lon="0.94061">
        <ele>227</ele>
        <time>2024-08-26T20:55:56Z</time>
      </trkpt>
      <trkpt lat="44.32399" lon="0.9402">
        <ele>228</ele>
        <time>2024-08-26T20:56:35Z</time>
      </trkpt>
      <trkpt lat="44.32409" lon="0.93987">
        <ele>228</ele>
        <time>2024-08-26T20:57:09Z</time>
      </trkpt>
      <trkpt lat="44.32411" lon="0.93962">
        <ele>229</ele>
        <time>2024-08-26T20:57:33Z</time>
      </trkpt>
      <trkpt lat="44.32464" lon="0.93873">
        <ele>227</ele>
        <time>2024-08-26T20:59:23Z</time>
      </trkpt>
      <trkpt lat="44.32479" lon="0.93855">
        <ele>227</ele>
        <time>2024-08-26T20:59:50Z</time>
      </trkpt>
      <trkpt lat="44.32482" lon="0.93845">
        <ele>227</ele>
        <time>2024-08-26T21:00:00Z</time>
      </trkpt>
      <trkpt lat="44.32505" lon="0.93819">
        <ele>227</ele>
        <time>2024-08-26T21:00:40Z</time>
      </trkpt>
      <trkpt lat="44.32533" lon="0.93775">
        <ele>225</ele>
        <time>2024-08-26T21:01:36Z</time>
      </trkpt>
      <trkpt lat="44.32547" lon="0.93744">
        <ele>225</ele>
        <time>2024-08-26T21:02:11Z</time>
      </trkpt>
      <trkpt lat="44.32556" lon="0.93732">
        <ele>225</ele>
        <time>2024-08-26T21:02:27Z</time>
      </trkpt>
      <trkpt lat="44.32566" lon="0.93726">
        <ele>224</ele>
        <time>2024-08-26T21:02:42Z</time>
      </trkpt>
      <trkpt lat="44.32566" lon="0.93709">
        <ele>225</ele>
        <time>2024-08-26T21:02:58Z</time>
      </trkpt>
      <trkpt lat="44.32597" lon="0.93666">
        <ele>224</ele>
        <time>2024-08-26T21:03:57Z</time>
      </trkpt>
      <trkpt lat="44.32601" lon="0.93665">
        <ele>224</ele>
        <time>2024-08-26T21:04:02Z</time>
      </trkpt>
      <trkpt lat="44.32614" lon="0.93634">
        <ele>223</ele>
        <time>2024-08-26T21:04:36Z</time>
      </trkpt>
      <trkpt lat="44.32614" lon="0.93624">
        <ele>223</ele>
        <time>2024-08-26T21:04:46Z</time>
      </trkpt>
      <trkpt lat="44.32631" lon="0.93596">
        <ele>222</ele>
        <time>2024-08-26T21:05:21Z</time>
      </trkpt>
      <trkpt lat="44.32664" lon="0.93524">
        <ele>221</ele>
        <time>2024-08-26T21:06:42Z</time>
      </trkpt>
      <trkpt lat="44.32668" lon="0.93526">
        <ele>221</ele>
        <time>2024-08-26T21:06:48Z</time>
      </trkpt>
      <trkpt lat="44.3267" lon="0.93523">
        <ele>221</ele>
        <time>2024-08-26T21:06:52Z</time>
      </trkpt>
      <trkpt lat="44.32682" lon="0.93486">
        <ele>220</ele>
        <time>2024-08-26T21:07:31Z</time>
      </trkpt>
      <trkpt lat="44.32726" lon="0.93411">
        <ele>220</ele>
        <time>2024-08-26T21:09:03Z</time>
      </trkpt>
      <trkpt lat="44.32736" lon="0.9338">
        <ele>221</ele>
        <time>2024-08-26T21:09:36Z</time>
      </trkpt>
      <trkpt lat="44.32751" lon="0.93363">
        <ele>221</ele>
        <time>2024-08-26T21:10:02Z</time>
      </trkpt>
      <trkpt lat="44.32752" lon="0.93352">
        <ele>221</ele>
        <time>2024-08-26T21:10:12Z</time>
      </trkpt>
      <trkpt lat="44.32763" lon="0.93343">
        <ele>222</ele>
        <time>2024-08-26T21:10:29Z</time>
      </trkpt>
      <trkpt lat="44.32762" lon="0.93332">
        <ele>222</ele>
        <time>2024-08-26T21:10:40Z</time>
      </trkpt>
      <trkpt lat="44.32756" lon="0.93326">
        <ele>222</ele>
        <time>2024-08-26T21:10:50Z</time>
      </trkpt>
      <trkpt lat="44.32739" lon="0.93325">
        <ele>223</ele>
        <time>2024-08-26T21:11:12Z</time>
      </trkpt>
      <trkpt lat="44.32724" lon="0.93317">
        <ele>224</ele>
        <time>2024-08-26T21:11:34Z</time>
      </trkpt>
      <trkpt lat="44.3271" lon="0.93315">
        <ele>224</ele>
        <time>2024-08-26T21:11:53Z</time>
      </trkpt>
      <trkpt lat="44.327" lon="0.93306">
        <ele>225</ele>
        <time>2024-08-26T21:12:08Z</time>
      </trkpt>
      <trkpt lat="44.3266" lon="0.93314">
        <ele>226</ele>
        <time>2024-08-26T21:13:02Z</time>
      </trkpt>
      <trkpt lat="44.32645" lon="0.93308">
        <ele>227</ele>
        <time>2024-08-26T21:13:23Z</time>
      </trkpt>
      <trkpt lat="44.32613" lon="0.9331">
        <ele>228</ele>
        <time>2024-08-26T21:14:06Z</time>
      </trkpt>
      <trkpt lat="44.32562" lon="0.93305">
        <ele>229</ele>
        <time>2024-08-26T21:15:14Z</time>
      </trkpt>
      <trkpt lat="44.3254" lon="0.93312">
        <ele>230</ele>
        <time>2024-08-26T21:15:44Z</time>
      </trkpt>
      <trkpt lat="44.32534" lon="0.9331">
        <ele>230</ele>
        <time>2024-08-26T21:15:53Z</time>
      </trkpt>
      <trkpt lat="44.3251" lon="0.93317">
        <ele>230</ele>
        <time>2024-08-26T21:16:25Z</time>
      </trkpt>
      <trkpt lat="44.3249" lon="0.93317">
        <ele>231</ele>
        <time>2024-08-26T21:16:52Z</time>
      </trkpt>
      <trkpt lat="44.32473" lon="0.93324">
        <ele>231</ele>
        <time>2024-08-26T21:17:16Z</time>
      </trkpt>
      <trkpt lat="44.32452" lon="0.93323">
        <ele>232</ele>
        <time>2024-08-26T21:17:44Z</time>
      </trkpt>
      <trkpt lat="44.32445" lon="0.93318">
        <ele>232</ele>
        <time>2024-08-26T21:17:54Z</time>
      </trkpt>
      <trkpt lat="44.32442" lon="0.93328">
        <ele>232</ele>
        <time>2024-08-26T21:18:04Z</time>
      </trkpt>
      <trkpt lat="44.32407" lon="0.93334">
        <ele>233</ele>
        <time>2024-08-26T21:18:52Z</time>
      </trkpt>
      <trkpt lat="44.32414" lon="0.9331">
        <ele>234</ele>
        <time>2024-08-26T21:19:16Z</time>
      </trkpt>
      <trkpt lat="44.32415" lon="0.9329">
        <ele>235</ele>
        <time>2024-08-26T21:19:35Z</time>
      </trkpt>
      <trkpt lat="44.32425" lon="0.93284">
        <ele>234</ele>
        <time>2024-08-26T21:19:50Z</time>
      </trkpt>
      <trkpt lat="44.32422" lon="0.93264">
        <ele>235</ele>
        <time>2024-08-26T21:20:09Z</time>
      </trkpt>
      <trkpt lat="44.32441" lon="0.93216">
        <ele>235</ele>
        <time>2024-08-26T21:21:02Z</time>
      </trkpt>
      <trkpt lat="44.32456" lon="0.93193">
        <ele>234</ele>
        <time>2024-08-26T21:21:32Z</time>
      </trkpt>
      <trkpt lat="44.32462" lon="0.93175">
        <ele>234</ele>
        <time>2024-08-26T21:21:50Z</time>
      </trkpt>
      <trkpt lat="44.32461" lon="0.9316">
        <ele>234</ele>
        <time>2024-08-26T21:22:05Z</time>
      </trkpt>
      <trkpt lat="44.32471" lon="0.93132">
        <ele>234</ele>
        <time>2024-08-26T21:22:35Z</time>
      </trkpt>
      <trkpt lat="44.32473" lon="0.93018">
        <ele>232</ele>
        <time>2024-08-26T21:24:24Z</time>
      </trkpt>
      <trkpt lat="44.32476" lon="0.92982">
        <ele>232</ele>
        <time>2024-08-26T21:24:58Z</time>
      </trkpt>
      <trkpt lat="44.32482" lon="0.92963">
        <ele>232</ele>
        <time>2024-08-26T21:25:18Z</time>
      </trkpt>
      <trkpt lat="44.32479" lon="0.92926">
        <ele>232</ele>
        <time>2024-08-26T21:25:54Z</time>
      </trkpt>
      <trkpt lat="44.32485" lon="0.9291">
        <ele>231</ele>
        <time>2024-08-26T21:26:11Z</time>
      </trkpt>
      <trkpt lat="44.3248" lon="0.9287">
        <ele>231</ele>
        <time>2024-08-26T21:26:50Z</time>
      </trkpt>
      <trkpt lat="44.32482" lon="0.92842">
        <ele>231</ele>
        <time>2024-08-26T21:27:16Z</time>
      </trkpt>
      <trkpt lat="44.32476" lon="0.92787">
        <ele>231</ele>
        <time>2024-08-26T21:28:10Z</time>
      </trkpt>
      <trkpt lat="44.3247" lon="0.92776">
        <ele>231</ele>
        <time>2024-08-26T21:28:23Z</time>
      </trkpt>
      <trkpt lat="44.32463" lon="0.92739">
        <ele>231</ele>
        <time>2024-08-26T21:28:59Z</time>
      </trkpt>
      <trkpt lat="44.32463" lon="0.92698">
        <ele>233</ele>
        <time>2024-08-26T21:29:38Z</time>
      </trkpt>
      <trkpt lat="44.32444" lon="0.92628">
        <ele>233</ele>
        <time>2024-08-26T21:30:50Z</time>
      </trkpt>
      <trkpt lat="44.32422" lon="0.92574">
        <ele>233</ele>
        <time>2024-08-26T21:31:49Z</time>
      </trkpt>
      <trkpt lat="44.32412" lon="0.92564">
        <ele>233</ele>
        <time>2024-08-26T21:32:06Z</time>
      </trkpt>
      <trkpt lat="44.32396" lon="0.92531">
        <ele>232</ele>
        <time>2024-08-26T21:32:44Z</time>
      </trkpt>
      <trkpt lat="44.3239" lon="0.92528">
        <ele>232</ele>
        <time>2024-08-26T21:32:52Z</time>
      </trkpt>
      <trkpt lat="44.32374" lon="0.92495">
        <ele>231</ele>
        <time>2024-08-26T21:33:30Z</time>
      </trkpt>
      <trkpt lat="44.32368" lon="0.92494">
        <ele>231</ele>
        <time>2024-08-26T21:33:38Z</time>
      </trkpt>
      <trkpt lat="44.32338" lon="0.92412">
        <ele>230</ele>
        <time>2024-08-26T21:35:06Z</time>
      </trkpt>
      <trkpt lat="44.32318" lon="0.92323">
        <ele>228</ele>
        <time>2024-08-26T21:36:35Z</time>
      </trkpt>
      <trkpt lat="44.32304" lon="0.92314">
        <ele>228</ele>
        <time>2024-08-26T21:36:56Z</time>
      </trkpt>
      <trkpt lat="44.32293" lon="0.92319">
        <ele>228</ele>
        <time>2024-08-26T21:37:11Z</time>
      </trkpt>
      <trkpt lat="44.32271" lon="0.92321">
        <ele>228</ele>
        <time>2024-08-26T21:37:41Z</time>
      </trkpt>
      <trkpt lat="44.32271" lon="0.92324">
        <ele>228</ele>
        <time>2024-08-26T21:37:44Z</time>
      </trkpt>
      <trkpt lat="44.32233" lon="0.92321">
        <ele>228</ele>
        <time>2024-08-26T21:38:34Z</time>
      </trkpt>
      <trkpt lat="44.32215" lon="0.92326">
        <ele>228</ele>
        <time>2024-08-26T21:38:59Z</time>
      </trkpt>
      <trkpt lat="44.32212" lon="0.92322">
        <ele>227</ele>
        <time>2024-08-26T21:39:04Z</time>
      </trkpt>
      <trkpt lat="44.32179" lon="0.92332">
        <ele>226</ele>
        <time>2024-08-26T21:39:49Z</time>
      </trkpt>
      <trkpt lat="44.32174" lon="0.92329">
        <ele>226</ele>
        <time>2024-08-26T21:39:57Z</time>
      </trkpt>
      <trkpt lat="44.32163" lon="0.92344">
        <ele>225</ele>
        <time>2024-08-26T21:40:17Z</time>
      </trkpt>
      <trkpt lat="44.3215" lon="0.92345">
        <ele>224</ele>
        <time>2024-08-26T21:40:35Z</time>
      </trkpt>
      <trkpt lat="44.32144" lon="0.92341">
        <ele>224</ele>
        <time>2024-08-26T21:40:43Z</time>
      </trkpt>
      <trkpt lat="44.3214" lon="0.92346">
        <ele>223</ele>
        <time>2024-08-26T21:40:51Z</time>
      </trkpt>
      <trkpt lat="44.32139" lon="0.92366">
        <ele>223</ele>
        <time>2024-08-26T21:41:10Z</time>
      </trkpt>
      <trkpt lat="44.32142" lon="0.92395">
        <ele>223</ele>
        <time>2024-08-26T21:41:38Z</time>
      </trkpt>
      <trkpt lat="44.32155" lon="0.92427">
        <ele>224</ele>
        <time>2024-08-26T21:42:13Z</time>
      </trkpt>
      <trkpt lat="44.32158" lon="0.92474">
        <ele>224</ele>
        <time>2024-08-26T21:42:58Z</time>
      </trkpt>
      <trkpt lat="44.32167" lon="0.92538">
        <ele>221</ele>
        <time>2024-08-26T21:44:00Z</time>
      </trkpt>
      <trkpt lat="44.32176" lon="0.92619">
        <ele>218</ele>
        <time>2024-08-26T21:45:18Z</time>
      </trkpt>
      <trkpt lat="44.32178" lon="0.92768">
        <ele>214</ele>
        <time>2024-08-26T21:47:41Z</time>
      </trkpt>
      <trkpt lat="44.32186" lon="0.92842">
        <ele>211</ele>
        <time>2024-08-26T21:48:52Z</time>
      </trkpt>
      <trkpt lat="44.32188" lon="0.9291">
        <ele>208</ele>
        <time>2024-08-26T21:49:57Z</time>
      </trkpt>
      <trkpt lat="44.32178" lon="0.92912">
        <ele>207</ele>
        <time>2024-08-26T21:50:11Z</time>
      </trkpt>
      <trkpt lat="44.32161" lon="0.92902">
        <ele>205</ele>
        <time>2024-08-26T21:50:35Z</time>
      </trkpt>
      <trkpt lat="44.32138" lon="0.92877">
        <ele>205</ele>
        <time>2024-08-26T21:51:14Z</time>
      </trkpt>
      <trkpt lat="44.32122" lon="0.92843">
        <ele>205</ele>
        <time>2024-08-26T21:51:53Z</time>
      </trkpt>
      <trkpt lat="44.32106" lon="0.92822">
        <ele>204</ele>
        <time>2024-08-26T21:52:22Z</time>
      </trkpt>
      <trkpt lat="44.3208" lon="0.92801">
        <ele>203</ele>
        <time>2024-08-26T21:53:02Z</time>
      </trkpt>
      <trkpt lat="44.32059" lon="0.9279">
        <ele>200</ele>
        <time>2024-08-26T21:53:32Z</time>
      </trkpt>
      <trkpt lat="44.32047" lon="0.9276">
        <ele>200</ele>
        <time>2024-08-26T21:54:05Z</time>
      </trkpt>
      <trkpt lat="44.32051" lon="0.92754">
        <ele>201</ele>
        <time>2024-08-26T21:54:13Z</time>
      </trkpt>
      <trkpt lat="44.32048" lon="0.92702">
        <ele>203</ele>
        <time>2024-08-26T21:55:03Z</time>
      </trkpt>
      <trkpt lat="44.3204" lon="0.9269">
        <ele>202</ele>
        <time>2024-08-26T21:55:18Z</time>
      </trkpt>
      <trkpt lat="44.32025" lon="0.92683">
        <ele>201</ele>
        <time>2024-08-26T21:55:40Z</time>
      </trkpt>
      <trkpt lat="44.32021" lon="0.92677">
        <ele>201</ele>
        <time>2024-08-26T21:55:47Z</time>
      </trkpt>
      <trkpt lat="44.32004" lon="0.92674">
        <ele>199</ele>
        <time>2024-08-26T21:56:10Z</time>
      </trkpt>
      <trkpt lat="44.3198" lon="0.92651">
        <ele>198</ele>
        <time>2024-08-26T21:56:49Z</time>
      </trkpt>
      <trkpt lat="44.31973" lon="0.92649">
        <ele>197</ele>
        <time>2024-08-26T21:56:59Z</time>
      </trkpt>
      <trkpt lat="44.31965" lon="0.92653">
        <ele>195</ele>
        <time>2024-08-26T21:57:10Z</time>
      </trkpt>
      <trkpt lat="44.31958" lon="0.92648">
        <ele>195</ele>
        <time>2024-08-26T21:57:20Z</time>
      </trkpt>
      <trkpt lat="44.31945" lon="0.92628">
        <ele>197</ele>
        <time>2024-08-26T21:57:46Z</time>
      </trkpt>
      <trkpt lat="44.3193" lon="0.92624">
        <ele>196</ele>
        <time>2024-08-26T21:58:07Z</time>
      </trkpt>
      <trkpt lat="44.31896" lon="0.92588">
        <ele>197</ele>
        <time>2024-08-26T21:59:04Z</time>
      </trkpt>
      <trkpt lat="44.31874" lon="0.92562">
        <ele>197</ele>
        <time>2024-08-26T21:59:42Z</time>
      </trkpt>
      <trkpt lat="44.31861" lon="0.92553">
        <ele>197</ele>
        <time>2024-08-26T22:00:01Z</time>
      </trkpt>
      <trkpt lat="44.31853" lon="0.92544">
        <ele>197</ele>
        <time>2024-08-26T22:00:15Z</time>
      </trkpt>
      <trkpt lat="44.31843" lon="0.92542">
        <ele>196</ele>
        <time>2024-08-26T22:00:28Z</time>
      </trkpt>
      <trkpt lat="44.31832" lon="0.92528">
        <ele>198</ele>
        <time>2024-08-26T22:00:48Z</time>
      </trkpt>
      <trkpt lat="44.31819" lon="0.9252">
        <ele>197</ele>
        <time>2024-08-26T22:01:07Z</time>
      </trkpt>
      <trkpt lat="44.31802" lon="0.92516">
        <ele>196</ele>
        <time>2024-08-26T22:01:30Z</time>
      </trkpt>
      <trkpt lat="44.3178" lon="0.92496">
        <ele>196</ele>
        <time>2024-08-26T22:02:05Z</time>
      </trkpt>
      <trkpt lat="44.31768" lon="0.925">
        <ele>194</ele>
        <time>2024-08-26T22:02:22Z</time>
      </trkpt>
      <trkpt lat="44.31756" lon="0.92495">
        <ele>192</ele>
        <time>2024-08-26T22:02:39Z</time>
      </trkpt>
      <trkpt lat="44.31747" lon="0.92483">
        <ele>190</ele>
        <time>2024-08-26T22:02:55Z</time>
      </trkpt>
      <trkpt lat="44.31749" lon="0.92469">
        <ele>190</ele>
        <time>2024-08-26T22:03:09Z</time>
      </trkpt>
      <trkpt lat="44.31744" lon="0.92462">
        <ele>189</ele>
        <time>2024-08-26T22:03:18Z</time>
      </trkpt>
      <trkpt lat="44.31725" lon="0.92464">
        <ele>184</ele>
        <time>2024-08-26T22:03:44Z</time>
      </trkpt>
      <trkpt lat="44.31722" lon="0.92473">
        <ele>184</ele>
        <time>2024-08-26T22:03:53Z</time>
      </trkpt>
      <trkpt lat="44.31711" lon="0.92481">
        <ele>181</ele>
        <time>2024-08-26T22:04:10Z</time>
      </trkpt>
      <trkpt lat="44.31704" lon="0.92475">
        <ele>179</ele>
        <time>2024-08-26T22:04:21Z</time>
      </trkpt>
      <trkpt lat="44.31695" lon="0.92474">
        <ele>177</ele>
        <time>2024-08-26T22:04:33Z</time>
      </trkpt>
      <trkpt lat="44.31687" lon="0.92485">
        <ele>175</ele>
        <time>2024-08-26T22:04:48Z</time>
      </trkpt>
      <trkpt lat="44.31659" lon="0.92495">
        <ele>169</ele>
        <time>2024-08-26T22:05:26Z</time>
      </trkpt>
      <trkpt lat="44.31642" lon="0.92516">
        <ele>164</ele>
        <time>2024-08-26T22:05:56Z</time>
      </trkpt>
      <trkpt lat="44.31643" lon="0.9252">
        <ele>164</ele>
        <time>2024-08-26T22:06:01Z</time>
      </trkpt>
      <trkpt lat="44.31637" lon="0.92519">
        <ele>163</ele>
        <time>2024-08-26T22:06:09Z</time>
      </trkpt>
      <trkpt lat="44.31616" lon="0.9253">
        <ele>159</ele>
        <time>2024-08-26T22:06:38Z</time>
      </trkpt>
      <trkpt lat="44.31611" lon="0.92528">
        <ele>158</ele>
        <time>2024-08-26T22:06:45Z</time>
      </trkpt>
      <trkpt lat="44.31599" lon="0.92535">
        <ele>156</ele>
        <time>2024-08-26T22:07:03Z</time>
      </trkpt>
      <trkpt lat="44.31581" lon="0.92538">
        <ele>153</ele>
        <time>2024-08-26T22:07:27Z</time>
      </trkpt>
      <trkpt lat="44.31572" lon="0.92546">
        <ele>151</ele>
        <time>2024-08-26T22:07:41Z</time>
      </trkpt>
      <trkpt lat="44.31543" lon="0.92543">
        <ele>147</ele>
        <time>2024-08-26T22:08:20Z</time>
      </trkpt>
      <trkpt lat="44.31532" lon="0.92548">
        <ele>146</ele>
        <time>2024-08-26T22:08:35Z</time>
      </trkpt>
      <trkpt lat="44.31531" lon="0.92544">
        <ele>146</ele>
        <time>2024-08-26T22:08:39Z</time>
      </trkpt>
      <trkpt lat="44.31526" lon="0.92546">
        <ele>145</ele>
        <time>2024-08-26T22:08:46Z</time>
      </trkpt>
      <trkpt lat="44.31506" lon="0.9254">
        <ele>142</ele>
        <time>2024-08-26T22:09:14Z</time>
      </trkpt>
      <trkpt lat="44.31487" lon="0.92542">
        <ele>141</ele>
        <time>2024-08-26T22:09:39Z</time>
      </trkpt>
      <trkpt lat="44.31467" lon="0.92535">
        <ele>140</ele>
        <time>2024-08-26T22:10:07Z</time>
      </trkpt>
      <trkpt lat="44.31461" lon="0.92538">
        <ele>139</ele>
        <time>2024-08-26T22:10:15Z</time>
      </trkpt>
      <trkpt lat="44.31422" lon="0.92522">
        <ele>137</ele>
        <time>2024-08-26T22:11:09Z</time>
      </trkpt>
      <trkpt lat="44.31415" lon="0.92527">
        <ele>137</ele>
        <time>2024-08-26T22:11:20Z</time>
      </trkpt>
      <trkpt lat="44.31399" lon="0.92518">
        <ele>136</ele>
        <time>2024-08-26T22:11:43Z</time>
      </trkpt>
      <trkpt lat="44.31397" lon="0.9251">
        <ele>136</ele>
        <time>2024-08-26T22:11:51Z</time>
      </trkpt>
      <trkpt lat="44.31394" lon="0.92512">
        <ele>136</ele>
        <time>2024-08-26T22:11:55Z</time>
      </trkpt>
      <trkpt lat="44.31385" lon="0.92503">
        <ele>136</ele>
        <time>2024-08-26T22:12:10Z</time>
      </trkpt>
      <trkpt lat="44.31385" lon="0.92483">
        <ele>136</ele>
        <time>2024-08-26T22:12:29Z</time>
      </trkpt>
      <trkpt lat="44.31373" lon="0.9247">
        <ele>136</ele>
        <time>2024-08-26T22:12:50Z</time>
      </trkpt>
      <trkpt lat="44.31374" lon="0.9246">
        <ele>136</ele>
        <time>2024-08-26T22:12:59Z</time>
      </trkpt>
      <trkpt lat="44.31379" lon="0.9245">
        <ele>137</ele>
        <time>2024-08-26T22:13:11Z</time>
      </trkpt>
      <trkpt lat="44.31392" lon="0.92428">
        <ele>138</ele>
        <time>2024-08-26T22:13:38Z</time>
      </trkpt>
      <trkpt lat="44.31417" lon="0.92396">
        <ele>140</ele>
        <time>2024-08-26T22:14:23Z</time>
      </trkpt>
      <trkpt lat="44.31424" lon="0.92386">
        <ele>141</ele>
        <time>2024-08-26T22:14:37Z</time>
      </trkpt>
      <trkpt lat="44.31465" lon="0.9235">
        <ele>147</ele>
        <time>2024-08-26T22:15:41Z</time>
      </trkpt>
      <trkpt lat="44.31471" lon="0.92343">
        <ele>148</ele>
        <time>2024-08-26T22:15:52Z</time>
      </trkpt>
      <trkpt lat="44.31482" lon="0.92335">
        <ele>150</ele>
        <time>2024-08-26T22:16:08Z</time>
      </trkpt>
      <trkpt lat="44.31497" lon="0.92329">
        <ele>152</ele>
        <time>2024-08-26T22:16:29Z</time>
      </trkpt>
      <trkpt lat="44.31515" lon="0.92314">
        <ele>154</ele>
        <time>2024-08-26T22:16:57Z</time>
      </trkpt>
      <trkpt lat="44.31528" lon="0.92305">
        <ele>155</ele>
        <time>2024-08-26T22:17:16Z</time>
      </trkpt>
      <trkpt lat="44.31547" lon="0.92289">
        <ele>157</ele>
        <time>2024-08-26T22:17:46Z</time>
      </trkpt>
      <trkpt lat="44.31564" lon="0.92272">
        <ele>160</ele>
        <time>2024-08-26T22:18:14Z</time>
      </trkpt>
      <trkpt lat="44.31572" lon="0.92257">
        <ele>163</ele>
        <time>2024-08-26T22:18:32Z</time>
      </trkpt>
      <trkpt lat="44.3158" lon="0.92249">
        <ele>164</ele>
        <time>2024-08-26T22:18:45Z</time>
      </trkpt>
      <trkpt lat="44.31585" lon="0.92238">
        <ele>165</ele>
        <time>2024-08-26T22:18:57Z</time>
      </trkpt>
      <trkpt lat="44.31595" lon="0.92226">
        <ele>168</ele>
        <time>2024-08-26T22:19:15Z</time>
      </trkpt>
      <trkpt lat="44.31609" lon="0.92197">
        <ele>172</ele>
        <time>2024-08-26T22:19:48Z</time>
      </trkpt>
      <trkpt lat="44.31617" lon="0.92193">
        <ele>175</ele>
        <time>2024-08-26T22:20:00Z</time>
      </trkpt>
      <trkpt lat="44.31625" lon="0.92198">
        <ele>177</ele>
        <time>2024-08-26T22:20:11Z</time>
      </trkpt>
      <trkpt lat="44.31632" lon="0.92207">
        <ele>178</ele>
        <time>2024-08-26T22:20:24Z</time>
      </trkpt>
      <trkpt lat="44.31635" lon="0.92189">
        <ele>181</ele>
        <time>2024-08-26T22:20:42Z</time>
      </trkpt>
      <trkpt lat="44.31633" lon="0.92173">
        <ele>182</ele>
        <time>2024-08-26T22:20:57Z</time>
      </trkpt>
      <trkpt lat="44.31636" lon="0.92151">
        <ele>183</ele>
        <time>2024-08-26T22:21:19Z</time>
      </trkpt>
      <trkpt lat="44.31639" lon="0.92133">
        <ele>184</ele>
        <time>2024-08-26T22:21:36Z</time>
      </trkpt>
      <trkpt lat="44.31641" lon="0.92125">
        <ele>184</ele>
        <time>2024-08-26T22:21:44Z</time>
      </trkpt>
      <trkpt lat="44.31646" lon="0.92113">
        <ele>186</ele>
        <time>2024-08-26T22:21:58Z</time>
      </trkpt>
      <trkpt lat="44.3165" lon="0.92108">
        <ele>187</ele>
        <time>2024-08-26T22:22:05Z</time>
      </trkpt>
      <trkpt lat="44.31656" lon="0.92091">
        <ele>189</ele>
        <time>2024-08-26T22:22:23Z</time>
      </trkpt>
      <trkpt lat="44.31659" lon="0.92091">
        <ele>190</ele>
        <time>2024-08-26T22:22:27Z</time>
      </trkpt>
      <trkpt lat="44.31657" lon="0.92087">
        <ele>189</ele>
        <time>2024-08-26T22:22:32Z</time>
      </trkpt>
      <trkpt lat="44.31664" lon="0.92087">
        <ele>192</ele>
        <time>2024-08-26T22:22:41Z</time>
      </trkpt>
      <trkpt lat="44.31672" lon="0.92079">
        <ele>193</ele>
        <time>2024-08-26T22:22:54Z</time>
      </trkpt>
      <trkpt lat="44.31697" lon="0.92038">
        <ele>194</ele>
        <time>2024-08-26T22:23:45Z</time>
      </trkpt>
      <trkpt lat="44.31713" lon="0.92022">
        <ele>196</ele>
        <time>2024-08-26T22:24:12Z</time>
      </trkpt>
      <trkpt lat="44.31748" lon="0.91984">
        <ele>203</ele>
        <time>2024-08-26T22:25:11Z</time>
      </trkpt>
      <trkpt lat="44.3178" lon="0.9196">
        <ele>206</ele>
        <time>2024-08-26T22:25:59Z</time>
      </trkpt>
      <trkpt lat="44.31779" lon="0.91934">
        <ele>205</ele>
        <time>2024-08-26T22:26:24Z</time>
      </trkpt>
      <trkpt lat="44.31776" lon="0.91897">
        <ele>206</ele>
        <time>2024-08-26T22:27:00Z</time>
      </trkpt>
      <trkpt lat="44.31773" lon="0.91845">
        <ele>209</ele>
        <time>2024-08-26T22:27:50Z</time>
      </trkpt>
      <trkpt lat="44.31771" lon="0.91821">
        <ele>210</ele>
        <time>2024-08-26T22:28:13Z</time>
      </trkpt>
      <trkpt lat="44.31768" lon="0.91803">
        <ele>209</ele>
        <time>2024-08-26T22:28:30Z</time>
      </trkpt>
      <trkpt lat="44.31763" lon="0.91765">
        <ele>208</ele>
        <time>2024-08-26T22:29:07Z</time>
      </trkpt>
      <trkpt lat="44.31763" lon="0.91737">
        <ele>207</ele>
        <time>2024-08-26T22:29:34Z</time>
      </trkpt>
      <trkpt lat="44.31764" lon="0.91717">
        <ele>206</ele>
        <time>2024-08-26T22:29:53Z</time>
      </trkpt>
      <trkpt lat="44.31763" lon="0.91689">
        <ele>205</ele>
        <time>2024-08-26T22:30:20Z</time>
      </trkpt>
      <trkpt lat="44.31765" lon="0.91699">
        <ele>206</ele>
        <time>2024-08-26T22:30:30Z</time>
      </trkpt>
      <trkpt lat="44.31765" lon="0.91684">
        <ele>205</ele>
        <time>2024-08-26T22:30:44Z</time>
      </trkpt>
      <trkpt lat="44.31763" lon="0.91663">
        <ele>205</ele>
        <time>2024-08-26T22:31:04Z</time>
      </trkpt>
      <trkpt lat="44.31755" lon="0.91657">
        <ele>204</ele>
        <time>2024-08-26T22:31:16Z</time>
      </trkpt>
      <trkpt lat="44.31752" lon="0.91644">
        <ele>204</ele>
        <time>2024-08-26T22:31:29Z</time>
      </trkpt>
      <trkpt lat="44.31743" lon="0.91638">
        <ele>203</ele>
        <time>2024-08-26T22:31:43Z</time>
      </trkpt>
      <trkpt lat="44.31728" lon="0.91636">
        <ele>201</ele>
        <time>2024-08-26T22:32:03Z</time>
      </trkpt>
      <trkpt lat="44.31687" lon="0.91589">
        <ele>203</ele>
        <time>2024-08-26T22:33:14Z</time>
      </trkpt>
      <trkpt lat="44.31679" lon="0.91585">
        <ele>203</ele>
        <time>2024-08-26T22:33:25Z</time>
      </trkpt>
      <trkpt lat="44.31664" lon="0.91592">
        <ele>201</ele>
        <time>2024-08-26T22:33:46Z</time>
      </trkpt>
      <trkpt lat="44.31662" lon="0.91601">
        <ele>200</ele>
        <time>2024-08-26T22:33:55Z</time>
      </trkpt>
      <trkpt lat="44.31643" lon="0.91616">
        <ele>198</ele>
        <time>2024-08-26T22:34:24Z</time>
      </trkpt>
      <trkpt lat="44.31631" lon="0.91637">
        <ele>195</ele>
        <time>2024-08-26T22:34:50Z</time>
      </trkpt>
      <trkpt lat="44.31628" lon="0.9165">
        <ele>192</ele>
        <time>2024-08-26T22:35:03Z</time>
      </trkpt>
      <trkpt lat="44.31613" lon="0.91667">
        <ele>191</ele>
        <time>2024-08-26T22:35:29Z</time>
      </trkpt>
      <trkpt lat="44.31612" lon="0.91675">
        <ele>190</ele>
        <time>2024-08-26T22:35:36Z</time>
      </trkpt>
      <trkpt lat="44.31598" lon="0.91684">
        <ele>189</ele>
        <time>2024-08-26T22:35:57Z</time>
      </trkpt>
      <trkpt lat="44.31575" lon="0.91723">
        <ele>183</ele>
        <time>2024-08-26T22:36:45Z</time>
      </trkpt>
      <trkpt lat="44.31547" lon="0.91748">
        <ele>183</ele>
        <time>2024-08-26T22:37:30Z</time>
      </trkpt>
      <trkpt lat="44.31547" lon="0.9176">
        <ele>181</ele>
        <time>2024-08-26T22:37:41Z</time>
      </trkpt>
      <trkpt lat="44.31542" lon="0.91766">
        <ele>180</ele>
        <time>2024-08-26T22:37:50Z</time>
      </trkpt>
      <trkpt lat="44.31536" lon="0.9177">
        <ele>181</ele>
        <time>2024-08-26T22:37:59Z</time>
      </trkpt>
      <trkpt lat="44.3153" lon="0.91767">
        <ele>183</ele>
        <time>2024-08-26T22:38:07Z</time>
      </trkpt>
      <trkpt lat="44.31521" lon="0.91783">
        <ele>182</ele>
        <time>2024-08-26T22:38:27Z</time>
      </trkpt>
      <trkpt lat="44.31516" lon="0.91785">
        <ele>182</ele>
        <time>2024-08-26T22:38:34Z</time>
      </trkpt>
      <trkpt lat="44.31491" lon="0.91834">
        <ele>178</ele>
        <time>2024-08-26T22:39:31Z</time>
      </trkpt>
      <trkpt lat="44.3145" lon="0.91864">
        <ele>178</ele>
        <time>2024-08-26T22:40:33Z</time>
      </trkpt>
      <trkpt lat="44.31443" lon="0.91875">
        <ele>177</ele>
        <time>2024-08-26T22:40:47Z</time>
      </trkpt>
      <trkpt lat="44.31437" lon="0.91905">
        <ele>172</ele>
        <time>2024-08-26T22:41:17Z</time>
      </trkpt>
      <trkpt lat="44.31417" lon="0.91918">
        <ele>171</ele>
        <time>2024-08-26T22:41:46Z</time>
      </trkpt>
      <trkpt lat="44.31409" lon="0.91934">
        <ele>170</ele>
        <time>2024-08-26T22:42:05Z</time>
      </trkpt>
      <trkpt lat="44.31369" lon="0.91968">
        <ele>174</ele>
        <time>2024-08-26T22:43:07Z</time>
      </trkpt>
      <trkpt lat="44.31358" lon="0.91994">
        <ele>173</ele>
        <time>2024-08-26T22:43:36Z</time>
      </trkpt>
      <trkpt lat="44.31348" lon="0.92003">
        <ele>175</ele>
        <time>2024-08-26T22:43:52Z</time>
      </trkpt>
      <trkpt lat="44.31347" lon="0.92011">
        <ele>174</ele>
        <time>2024-08-26T22:44:00Z</time>
      </trkpt>
      <trkpt lat="44.31331" lon="0.9203">
        <ele>175</ele>
        <time>2024-08-26T22:44:28Z</time>
      </trkpt>
      <trkpt lat="44.31296" lon="0.92056">
        <ele>173</ele>
        <time>2024-08-26T22:45:20Z</time>
      </trkpt>
      <trkpt lat="44.31281" lon="0.92062">
        <ele>172</ele>
        <time>2024-08-26T22:45:41Z</time>
      </trkpt>
      <trkpt lat="44.31272" lon="0.92078">
        <ele>170</ele>
        <time>2024-08-26T22:46:01Z</time>
      </trkpt>
      <trkpt lat="44.31242" lon="0.92104">
        <ele>169</ele>
        <time>2024-08-26T22:46:48Z</time>
      </trkpt>
      <trkpt lat="44.31229" lon="0.92123">
        <ele>168</ele>
        <time>2024-08-26T22:47:13Z</time>
      </trkpt>
      <trkpt lat="44.31218" lon="0.9213">
        <ele>168</ele>
        <time>2024-08-26T22:47:29Z</time>
      </trkpt>
      <trkpt lat="44.31208" lon="0.92152">
        <ele>166</ele>
        <time>2024-08-26T22:47:54Z</time>
      </trkpt>
      <trkpt lat="44.31199" lon="0.92162">
        <ele>165</ele>
        <time>2024-08-26T22:48:09Z</time>
      </trkpt>
      <trkpt lat="44.31192" lon="0.9218">
        <ele>163</ele>
        <time>2024-08-26T22:48:29Z</time>
      </trkpt>
      <trkpt lat="44.31193" lon="0.92196">
        <ele>162</ele>
        <time>2024-08-26T22:48:44Z</time>
      </trkpt>
      <trkpt lat="44.31186" lon="0.92208">
        <ele>161</ele>
        <time>2024-08-26T22:48:59Z</time>
      </trkpt>
      <trkpt lat="44.3117" lon="0.92224">
        <ele>159</ele>
        <time>2024-08-26T22:49:25Z</time>
      </trkpt>
      <trkpt lat="44.31161" lon="0.92225">
        <ele>159</ele>
        <time>2024-08-26T22:49:37Z</time>
      </trkpt>
      <trkpt lat="44.31141" lon="0.92238">
        <ele>160</ele>
        <time>2024-08-26T22:50:07Z</time>
      </trkpt>
      <trkpt lat="44.31126" lon="0.92263">
        <ele>159</ele>
        <time>2024-08-26T22:50:38Z</time>
      </trkpt>
      <trkpt lat="44.31114" lon="0.92307">
        <ele>157</ele>
        <time>2024-08-26T22:51:23Z</time>
      </trkpt>
      <trkpt lat="44.31102" lon="0.92333">
        <ele>156</ele>
        <time>2024-08-26T22:51:52Z</time>
      </trkpt>
      <trkpt lat="44.311" lon="0.9235">
        <ele>155</ele>
        <time>2024-08-26T22:52:09Z</time>
      </trkpt>
      <trkpt lat="44.31078" lon="0.92369">
        <ele>155</ele>
        <time>2024-08-26T22:52:43Z</time>
      </trkpt>
      <trkpt lat="44.31063" lon="0.92409">
        <ele>152</ele>
        <time>2024-08-26T22:53:26Z</time>
      </trkpt>
      <trkpt lat="44.31061" lon="0.92442">
        <ele>148</ele>
        <time>2024-08-26T22:53:58Z</time>
      </trkpt>
      <trkpt lat="44.31065" lon="0.92446">
        <ele>147</ele>
        <time>2024-08-26T22:54:05Z</time>
      </trkpt>
      <trkpt lat="44.31065" lon="0.92464">
        <ele>145</ele>
        <time>2024-08-26T22:54:22Z</time>
      </trkpt>
      <trkpt lat="44.3106" lon="0.92474">
        <ele>143</ele>
        <time>2024-08-26T22:54:33Z</time>
      </trkpt>
      <trkpt lat="44.31061" lon="0.92494">
        <ele>141</ele>
        <time>2024-08-26T22:54:53Z</time>
      </trkpt>
      <trkpt lat="44.31055" lon="0.92525">
        <ele>138</ele>
        <time>2024-08-26T22:55:23Z</time>
      </trkpt>
      <trkpt lat="44.31059" lon="0.92541">
        <ele>137</ele>
        <time>2024-08-26T22:55:39Z</time>
      </trkpt>
      <trkpt lat="44.31052" lon="0.92559">
        <ele>135</ele>
        <time>2024-08-26T22:55:59Z</time>
      </trkpt>
      <trkpt lat="44.31052" lon="0.92572">
        <ele>134</ele>
        <time>2024-08-26T22:56:11Z</time>
      </trkpt>
      <trkpt lat="44.3106" lon="0.92585">
        <ele>133</ele>
        <time>2024-08-26T22:56:28Z</time>
      </trkpt>
      <trkpt lat="44.31058" lon="0.92596">
        <ele>133</ele>
        <time>2024-08-26T22:56:39Z</time>
      </trkpt>
      <trkpt lat="44.31036" lon="0.92611">
        <ele>132</ele>
        <time>2024-08-26T22:57:11Z</time>
      </trkpt>
      <trkpt lat="44.30999" lon="0.92633">
        <ele>129</ele>
        <time>2024-08-26T22:58:05Z</time>
      </trkpt>
      <trkpt lat="44.30986" lon="0.92639">
        <ele>127</ele>
        <time>2024-08-26T22:58:23Z</time>
      </trkpt>
      <trkpt lat="44.30952" lon="0.92664">
        <ele>124</ele>
        <time>2024-08-26T22:59:15Z</time>
      </trkpt>
      <trkpt lat="44.30947" lon="0.92668">
        <ele>124</ele>
        <time>2024-08-26T22:59:22Z</time>
      </trkpt>
      <trkpt lat="44.30939" lon="0.92675">
        <ele>124</ele>
        <time>2024-08-26T22:59:35Z</time>
      </trkpt>
      <trkpt lat="44.30925" lon="0.92681">
        <ele>123</ele>
        <time>2024-08-26T22:59:54Z</time>
      </trkpt>
      <trkpt lat="44.30891" lon="0.92713">
        <ele>124</ele>
        <time>2024-08-26T23:00:49Z</time>
      </trkpt>
      <trkpt lat="44.30884" lon="0.9272">
        <ele>125</ele>
        <time>2024-08-26T23:01:01Z</time>
      </trkpt>
      <trkpt lat="44.30878" lon="0.92735">
        <ele>125</ele>
        <time>2024-08-26T23:01:17Z</time>
      </trkpt>
      <trkpt lat="44.30873" lon="0.92749">
        <ele>126</ele>
        <time>2024-08-26T23:01:32Z</time>
      </trkpt>
      <trkpt lat="44.30873" lon="0.92761">
        <ele>126</ele>
        <time>2024-08-26T23:01:43Z</time>
      </trkpt>
      <trkpt lat="44.3087" lon="0.92771">
        <ele>127</ele>
        <time>2024-08-26T23:01:54Z</time>
      </trkpt>
      <trkpt lat="44.30869" lon="0.92782">
        <ele>127</ele>
        <time>2024-08-26T23:02:04Z</time>
      </trkpt>
      <trkpt lat="44.30868" lon="0.92799">
        <ele>128</ele>
        <time>2024-08-26T23:02:21Z</time>
      </trkpt>
      <trkpt lat="44.30945" lon="0.92833">
        <ele>136</ele>
        <time>2024-08-26T23:04:08Z</time>
      </trkpt>
      <trkpt lat="44.3096" lon="0.9284">
        <ele>137</ele>
        <time>2024-08-26T23:04:29Z</time>
      </trkpt>
      <trkpt lat="44.30972" lon="0.92842">
        <ele>139</ele>
        <time>2024-08-26T23:04:46Z</time>
      </trkpt>
      <trkpt lat="44.30987" lon="0.92844">
        <ele>140</ele>
        <time>2024-08-26T23:05:06Z</time>
      </trkpt>
      <trkpt lat="44.31001" lon="0.92854">
        <ele>142</ele>
        <time>2024-08-26T23:05:27Z</time>
      </trkpt>
      <trkpt lat="44.3101" lon="0.92857">
        <ele>144</ele>
        <time>2024-08-26T23:05:39Z</time>
      </trkpt>
      <trkpt lat="44.31027" lon="0.92863">
        <ele>146</ele>
        <time>2024-08-26T23:06:02Z</time>
      </trkpt>
      <trkpt lat="44.31055" lon="0.92876">
        <ele>150</ele>
        <time>2024-08-26T23:06:42Z</time>
      </trkpt>
      <trkpt lat="44.31078" lon="0.92888">
        <ele>154</ele>
        <time>2024-08-26T23:07:15Z</time>
      </trkpt>
      <trkpt lat="44.31097" lon="0.92893">
        <ele>157</ele>
        <time>2024-08-26T23:07:40Z</time>
      </trkpt>
      <trkpt lat="44.31102" lon="0.92899">
        <ele>157</ele>
        <time>2024-08-26T23:07:49Z</time>
      </trkpt>
      <trkpt lat="44.31117" lon="0.92901">
        <ele>160</ele>
        <time>2024-08-26T23:08:09Z</time>
      </trkpt>
      <trkpt lat="44.31124" lon="0.92903">
        <ele>161</ele>
        <time>2024-08-26T23:08:19Z</time>
      </trkpt>
      <trkpt lat="44.31133" lon="0.92909">
        <ele>163</ele>
        <time>2024-08-26T23:08:32Z</time>
      </trkpt>
      <trkpt lat="44.31149" lon="0.92909">
        <ele>165</ele>
        <time>2024-08-26T23:08:53Z</time>
      </trkpt>
      <trkpt lat="44.3116" lon="0.92912">
        <ele>167</ele>
        <time>2024-08-26T23:09:08Z</time>
      </trkpt>
      <trkpt lat="44.31171" lon="0.92912">
        <ele>168</ele>
        <time>2024-08-26T23:09:23Z</time>
      </trkpt>
      <trkpt lat="44.31213" lon="0.92915">
        <ele>175</ele>
        <time>2024-08-26T23:10:19Z</time>
      </trkpt>
      <trkpt lat="44.31226" lon="0.92911">
        <ele>177</ele>
        <time>2024-08-26T23:10:37Z</time>
      </trkpt>
      <trkpt lat="44.31253" lon="0.92921">
        <ele>181</ele>
        <time>2024-08-26T23:11:14Z</time>
      </trkpt>
      <trkpt lat="44.31269" lon="0.92921">
        <ele>183</ele>
        <time>2024-08-26T23:11:36Z</time>
      </trkpt>
      <trkpt lat="44.31308" lon="0.92919">
        <ele>188</ele>
        <time>2024-08-26T23:12:28Z</time>
      </trkpt>
      <trkpt lat="44.31313" lon="0.92915">
        <ele>188</ele>
        <time>2024-08-26T23:12:35Z</time>
      </trkpt>
      <trkpt lat="44.31339" lon="0.9292">
        <ele>191</ele>
        <time>2024-08-26T23:13:10Z</time>
      </trkpt>
      <trkpt lat="44.31354" lon="0.9292">
        <ele>191</ele>
        <time>2024-08-26T23:13:30Z</time>
      </trkpt>
      <trkpt lat="44.3136" lon="0.92925">
        <ele>192</ele>
        <time>2024-08-26T23:13:40Z</time>
      </trkpt>
      <trkpt lat="44.31369" lon="0.92927">
        <ele>192</ele>
        <time>2024-08-26T23:13:52Z</time>
      </trkpt>
      <trkpt lat="44.31376" lon="0.92928">
        <ele>192</ele>
        <time>2024-08-26T23:14:01Z</time>
      </trkpt>
      <trkpt lat="44.31384" lon="0.92935">
        <ele>193</ele>
        <time>2024-08-26T23:14:14Z</time>
      </trkpt>
      <trkpt lat="44.31408" lon="0.92949">
        <ele>195</ele>
        <time>2024-08-26T23:14:49Z</time>
      </trkpt>
      <trkpt lat="44.3147" lon="0.92963">
        <ele>199</ele>
        <time>2024-08-26T23:16:12Z</time>
      </trkpt>
      <trkpt lat="44.31491" lon="0.92975">
        <ele>202</ele>
        <time>2024-08-26T23:16:43Z</time>
      </trkpt>
      <trkpt lat="44.31504" lon="0.9298">
        <ele>203</ele>
        <time>2024-08-26T23:17:01Z</time>
      </trkpt>
      <trkpt lat="44.31527" lon="0.92998">
        <ele>208</ele>
        <time>2024-08-26T23:17:36Z</time>
      </trkpt>
      <trkpt lat="44.31537" lon="0.93002">
        <ele>208</ele>
        <time>2024-08-26T23:17:50Z</time>
      </trkpt>
      <trkpt lat="44.3156" lon="0.93014">
        <ele>209</ele>
        <time>2024-08-26T23:18:22Z</time>
      </trkpt>
      <trkpt lat="44.31583" lon="0.93025">
        <ele>210</ele>
        <time>2024-08-26T23:18:55Z</time>
      </trkpt>
      <trkpt lat="44.31606" lon="0.93059">
        <ele>211</ele>
        <time>2024-08-26T23:19:40Z</time>
      </trkpt>
      <trkpt lat="44.31619" lon="0.93071">
        <ele>212</ele>
        <time>2024-08-26T23:20:00Z</time>
      </trkpt>
      <trkpt lat="44.31656" lon="0.93124">
        <ele>213</ele>
        <time>2024-08-26T23:21:11Z</time>
      </trkpt>
      <trkpt lat="44.31675" lon="0.93132">
        <ele>213</ele>
        <time>2024-08-26T23:21:38Z</time>
      </trkpt>
      <trkpt lat="44.31695" lon="0.93156">
        <ele>214</ele>
        <time>2024-08-26T23:22:13Z</time>
      </trkpt>
      <trkpt lat="44.31698" lon="0.93154">
        <ele>214</ele>
        <time>2024-08-26T23:22:17Z</time>
      </trkpt>
      <trkpt lat="44.317" lon="0.93179">
        <ele>213</ele>
        <time>2024-08-26T23:22:41Z</time>
      </trkpt>
      <trkpt lat="44.3172" lon="0.93206">
        <ele>214</ele>
        <time>2024-08-26T23:23:18Z</time>
      </trkpt>
      <trkpt lat="44.3172" lon="0.93213">
        <ele>213</ele>
        <time>2024-08-26T23:23:25Z</time>
      </trkpt>
      <trkpt lat="44.3173" lon="0.93221">
        <ele>214</ele>
        <time>2024-08-26T23:23:40Z</time>
      </trkpt>
      <trkpt lat="44.31737" lon="0.93239">
        <ele>213</ele>
        <time>2024-08-26T23:24:00Z</time>
      </trkpt>
      <trkpt lat="44.31764" lon="0.9328">
        <ele>213</ele>
        <time>2024-08-26T23:24:53Z</time>
      </trkpt>
      <trkpt lat="44.31811" lon="0.93331">
        <ele>213</ele>
        <time>2024-08-26T23:26:13Z</time>
      </trkpt>
      <trkpt lat="44.31824" lon="0.93338">
        <ele>213</ele>
        <time>2024-08-26T23:26:31Z</time>
      </trkpt>
      <trkpt lat="44.31829" lon="0.93336">
        <ele>214</ele>
        <time>2024-08-26T23:26:38Z</time>
      </trkpt>
      <trkpt lat="44.31847" lon="0.93361">
        <ele>214</ele>
        <time>2024-08-26T23:27:12Z</time>
      </trkpt>
      <trkpt lat="44.31859" lon="0.93394">
        <ele>213</ele>
        <time>2024-08-26T23:27:47Z</time>
      </trkpt>
      <trkpt lat="44.31863" lon="0.93422">
        <ele>212</ele>
        <time>2024-08-26T23:28:15Z</time>
      </trkpt>
      <trkpt lat="44.31878" lon="0.93451">
        <ele>211</ele>
        <time>2024-08-26T23:28:49Z</time>
      </trkpt>
      <trkpt lat="44.31872" lon="0.93477">
        <ele>208</ele>
        <time>2024-08-26T23:29:15Z</time>
      </trkpt>
      <trkpt lat="44.31876" lon="0.93506">
        <ele>206</ele>
        <time>2024-08-26T23:29:43Z</time>
      </trkpt>
      <trkpt lat="44.31895" lon="0.93548">
        <ele>205</ele>
        <time>2024-08-26T23:30:30Z</time>
      </trkpt>
      <trkpt lat="44.31899" lon="0.93568">
        <ele>205</ele>
        <time>2024-08-26T23:30:50Z</time>
      </trkpt>
      <trkpt lat="44.31903" lon="0.9357">
        <ele>205</ele>
        <time>2024-08-26T23:30:56Z</time>
      </trkpt>
      <trkpt lat="44.31911" lon="0.93588">
        <ele>206</ele>
        <time>2024-08-26T23:31:16Z</time>
      </trkpt>
      <trkpt lat="44.31922" lon="0.93632">
        <ele>208</ele>
        <time>2024-08-26T23:32:01Z</time>
      </trkpt>
      <trkpt lat="44.31925" lon="0.93645">
        <ele>209</ele>
        <time>2024-08-26T23:32:14Z</time>
      </trkpt>
      <trkpt lat="44.31931" lon="0.93658">
        <ele>209</ele>
        <time>2024-08-26T23:32:28Z</time>
      </trkpt>
      <trkpt lat="44.31931" lon="0.93712">
        <ele>213</ele>
        <time>2024-08-26T23:33:20Z</time>
      </trkpt>
      <trkpt lat="44.31925" lon="0.93732">
        <ele>214</ele>
        <time>2024-08-26T23:33:41Z</time>
      </trkpt>
      <trkpt lat="44.31918" lon="0.93749">
        <ele>215</ele>
        <time>2024-08-26T23:33:59Z</time>
      </trkpt>
      <trkpt lat="44.319" lon="0.93767">
        <ele>216</ele>
        <time>2024-08-26T23:34:29Z</time>
      </trkpt>
      <trkpt lat="44.31889" lon="0.93783">
        <ele>216</ele>
        <time>2024-08-26T23:34:50Z</time>
      </trkpt>
      <trkpt lat="44.31872" lon="0.93819">
        <ele>217</ele>
        <time>2024-08-26T23:35:31Z</time>
      </trkpt>
      <trkpt lat="44.3186" lon="0.93865">
        <ele>218</ele>
        <time>2024-08-26T23:36:18Z</time>
      </trkpt>
      <trkpt lat="44.31855" lon="0.9389">
        <ele>218</ele>
        <time>2024-08-26T23:36:43Z</time>
      </trkpt>
      <trkpt lat="44.31859" lon="0.93909">
        <ele>218</ele>
        <time>2024-08-26T23:37:02Z</time>
      </trkpt>
      <trkpt lat="44.31857" lon="0.93921">
        <ele>218</ele>
        <time>2024-08-26T23:37:14Z</time>
      </trkpt>
      <trkpt lat="44.31864" lon="0.93978">
        <ele>218</ele>
        <time>2024-08-26T23:38:09Z</time>
      </trkpt>
      <trkpt lat="44.31867" lon="0.9402">
        <ele>218</ele>
        <time>2024-08-26T23:38:49Z</time>
      </trkpt>
      <trkpt lat="44.31866" lon="0.94039">
        <ele>218</ele>
        <time>2024-08-26T23:39:07Z</time>
      </trkpt>
      <trkpt lat="44.31871" lon="0.94071">
        <ele>217</ele>
        <time>2024-08-26T23:39:39Z</time>
      </trkpt>
      <trkpt lat="44.31877" lon="0.94108">
        <ele>216</ele>
        <time>2024-08-26T23:40:15Z</time>
      </trkpt>
      <trkpt lat="44.31884" lon="0.94124">
        <ele>216</ele>
        <time>2024-08-26T23:40:33Z</time>
      </trkpt>
      <trkpt lat="44.31893" lon="0.94134">
        <ele>216</ele>
        <time>2024-08-26T23:40:48Z</time>
      </trkpt>
      <trkpt lat="44.31908" lon="0.94152">
        <ele>215</ele>
        <time>2024-08-26T23:41:14Z</time>
      </trkpt>
      <trkpt lat="44.31962" lon="0.94188">
        <ele>216</ele>
        <time>2024-08-26T23:42:34Z</time>
      </trkpt>
      <trkpt lat="44.31971" lon="0.94193">
        <ele>216</ele>
        <time>2024-08-26T23:42:47Z</time>
      </trkpt>
      <trkpt lat="44.32004" lon="0.94222">
        <ele>216</ele>
        <time>2024-08-26T23:43:39Z</time>
      </trkpt>
      <trkpt lat="44.32013" lon="0.94224">
        <ele>216</ele>
        <time>2024-08-26T23:43:51Z</time>
      </trkpt>
      <trkpt lat="44.32025" lon="0.94233">
        <ele>216</ele>
        <time>2024-08-26T23:44:09Z</time>
      </trkpt>
      <trkpt lat="44.32043" lon="0.94248">
        <ele>216</ele>
        <time>2024-08-26T23:44:37Z</time>
      </trkpt>
      <trkpt lat="44.32052" lon="0.94256">
        <ele>216</ele>
        <time>2024-08-26T23:44:52Z</time>
      </trkpt>
      <trkpt lat="44.32082" lon="0.94269">
        <ele>215</ele>
        <time>2024-08-26T23:45:34Z</time>
      </trkpt>
      <trkpt lat="44.32083" lon="0.94274">
        <ele>214</ele>
        <time>2024-08-26T23:45:39Z</time>
      </trkpt>
      <trkpt lat="44.32101" lon="0.9429">
        <ele>212</ele>
        <time>2024-08-26T23:46:07Z</time>
      </trkpt>
      <trkpt lat="44.32116" lon="0.94311">
        <ele>211</ele>
        <time>2024-08-26T23:46:35Z</time>
      </trkpt>
      <trkpt lat="44.32122" lon="0.94318">
        <ele>210</ele>
        <time>2024-08-26T23:46:46Z</time>
      </trkpt>
      <trkpt lat="44.3213" lon="0.9433">
        <ele>209</ele>
        <time>2024-08-26T23:47:01Z</time>
      </trkpt>
      <trkpt lat="44.32144" lon="0.94346">
        <ele>210</ele>
        <time>2024-08-26T23:47:26Z</time>
      </trkpt>
      <trkpt lat="44.32151" lon="0.94361">
        <ele>210</ele>
        <time>2024-08-26T23:47:43Z</time>
      </trkpt>
      <trkpt lat="44.32153" lon="0.94371">
        <ele>210</ele>
        <time>2024-08-26T23:47:53Z</time>
      </trkpt>
      <trkpt lat="44.32157" lon="0.94382">
        <ele>210</ele>
        <time>2024-08-26T23:48:04Z</time>
      </trkpt>
      <trkpt lat="44.32159" lon="0.94401">
        <ele>210</ele>
        <time>2024-08-26T23:48:23Z</time>
      </trkpt>
      <trkpt lat="44.32162" lon="0.94412">
        <ele>211</ele>
        <time>2024-08-26T23:48:34Z</time>
      </trkpt>
      <trkpt lat="44.32169" lon="0.94437">
        <ele>212</ele>
        <time>2024-08-26T23:49:00Z</time>
      </trkpt>
      <trkpt lat="44.32179" lon="0.94455">
        <ele>213</ele>
        <time>2024-08-26T23:49:21Z</time>
      </trkpt>
      <trkpt lat="44.32187" lon="0.94463">
        <ele>214</ele>
        <time>2024-08-26T23:49:34Z</time>
      </trkpt>
      <trkpt lat="44.32201" lon="0.94475">
        <ele>215</ele>
        <time>2024-08-26T23:49:56Z</time>
      </trkpt>
      <trkpt lat="44.32226" lon="0.94516">
        <ele>215</ele>
        <time>2024-08-26T23:50:48Z</time>
      </trkpt>
      <trkpt lat="44.32237" lon="0.9454">
        <ele>214</ele>
        <time>2024-08-26T23:51:15Z</time>
      </trkpt>
      <trkpt lat="44.32259" lon="0.94581">
        <ele>212</ele>
        <time>2024-08-26T23:52:04Z</time>
      </trkpt>
      <trkpt lat="44.32274" lon="0.94596">
        <ele>207</ele>
        <time>2024-08-26T23:52:29Z</time>
      </trkpt>
      <trkpt lat="44.32295" lon="0.94584">
        <ele>210</ele>
        <time>2024-08-26T23:52:59Z</time>
      </trkpt>
      <trkpt lat="44.32298" lon="0.94574">
        <ele>210</ele>
        <time>2024-08-26T23:53:09Z</time>
      </trkpt>
      <trkpt lat="44.32301" lon="0.94557">
        <ele>212</ele>
        <time>2024-08-26T23:53:26Z</time>
      </trkpt>
      <trkpt lat="44.32305" lon="0.94525">
        <ele>214</ele>
        <time>2024-08-26T23:53:57Z</time>
      </trkpt>
      <trkpt lat="44.32335" lon="0.94501">
        <ele>215</ele>
        <time>2024-08-26T23:54:43Z</time>
      </trkpt>
    </trkseg>
  </trk>
</gpx>